Portada
METAR-TAF:

METAR-TAF

Aeroports :

St. George Municipal Airport

St. George, Utah, Estats Units d'Amèrica

latitud: 37-05N, longitud: 113-36W, altitud: 896 m

Observació

L'informe es va fer fa 51 minuts, a les 07:56 UTC
Vent 4 kt del Est/Sud-Est
Temperatura 7°C
Humitat 57%
Pressió 1022 hPa
Visibilitat: 16.1 km
Cel clar

METAR: KSGU 260756Z AUTO 12004KT 10SM CLR 07/M01 A3018 RMK AO2 SLP215 T00671011

Hora: 01:47 (08:47 UTC)

Pronòstic

L'informe es va fer fa 3 hores i 3 minuts, a les 05:44 UTC
Pronòstic vàlid del 26 a les 06 UTC al 27 a les 06 UTC
Vent 4 kt amb direcció variable
Visibilitat: 10 km
Núvols disperses a una alçada de 15000 ft

TAF: KSGU 260544Z 2606/2706 VRB04KT P6SM SCT150

Observacions i pronòstics meteorològics de més de 4000 aeroports (METAR i TAF).

Les estacions disponibles són els punts grocs i vermells al mapa.

Posi el ratolí al punt desitjat per veure el nom de l'estació.

Feu clic per veure les observacions i els pronòstics meteorològics.

Per canviar el mapa: feu clic els botons verds amb una creu de color negre per apropar; al botó verd amb un guió per allunyar la imatge; o en les fletxes verdes per a mapes adjacents.


METAR-TAF: